Corbett, OR (97019)

6:56 AM PDT on October 24, 2014 (GMT -0700)
Corbett | Change Station
CLOSE
Current Station
Personal Weather Station
Location: Corbett, OR
Elevation: 820 ft
Nearby Weather Stations
Active Advisory: Special Statement

Elev 820 ft 45.53 °N, 122.27 °W | Updated 2 minutes ago

Mostly Cloudy
Mostly Cloudy
48.3 °F
Feels Like 48 °F
N
2.0
Wind Variable Wind from NE
Gusts 8.0 mph

Today
High -- | Low -- °F
--% Chance of Precip.
Yesterday
High -- | Low -- °F
Precip. -- in
7:37 AM 6:08 PM
New Moon, 0% visible
Pressure 30.01 in
Visibility 10.0 miles
Clouds Clear
Windchill 48 °F
Dew Point 48 °F
Humidity 99%
Rainfall 0.00 in
Snow Depth 0 in
UV 0.0 out of 12
Pollen .40 out of 12
Air Quality Not available.
Flu Activity Sporadic
METAR KTTD 241353Z AUTO 11007KT 10SM CLR 11/09 A3001 RMK AO2 SLP162 T01060089 TSNO

More Conditions Fewer Conditions

Pressure 30.01 in
Visibility 10.0 miles
Clouds Clear
Windchill 48 °F
Dew Point 48 °F
Humidity 99%
Rainfall 0.00 in
Snow Depth 0 in
UV 0.0 out of 12
Pollen .40 out of 12
Air Quality Not available.
Flu Activity Sporadic
METAR KTTD 241353Z AUTO 11007KT 10SM CLR 11/09 A3001 RMK AO2 SLP162 T01060089 TSNO

More Conditions Fewer Conditions

10-Day Weather Forecast

Almanac

Astronomy

Oct. 24, 2014 Rise Set
Actual Time 7:37 AM PDT 6:08 PM PDT
Civil Twilight 7:07 AM PDT 6:38 PM PDT
Nautical Twilight 6:32 AM PDT 7:12 PM PDT
Astronomical Twilight 5:58 AM PDT 7:47 PM PDT
Moon 8:23 AM PDT 6:49 PM PDT
Length of Visible Light 11h 31m
Length of Day
10h 30m
Tomorrow will be 2m 58s shorter.
New Moon, 0% of the Moon is Illuminated
Today
New Moon
Oct 30
First Quarter
Nov 6
Full
Nov 14
Last Quarter
Nov 22
New

Today's Extremes

State Highs State Lows

Community

WunderPhotos

Upload Photos

1,764,551 photos uploaded!

WunderBlogs® & News

By Dr. Jeff Masters
Director of Meteorology, Weather Underground
By Kari Strenfel
Meteorologist, Weather Underground
By Christopher C. Burt
Weather Historian, Weather Underground
October 24, 2014
October 24, 2014
October 24, 2014

Nearby

Snow Depth

Station Depth Elevation
North Fork 0 in 3120 ft
Greenpoint 0 in 3200 ft
Mud Ridge 0 in 3800 ft
Clear Lake 1 in 3500 ft
Peavine Ridge 0 in 3500 ft

Earthquake Activity

City Distance Mag. Time & Date
No recent earthquake activity has been reported nearby.
Minimum magnitude displayed is 2.5.

Coastal Water Temperatures

Place Temperature
No Stations Reporting

Nearby Weather Stations